sensor_id;sensor_type;location;lat;lon;timestamp;pressure;altitude;pressure_sealevel;temperature;humidity
13836;BME280;6988;52.614;13.500;2023-01-31T00:03:41;54855.06;;;-143.77;70.13
13836;BME280;6988;52.614;13.500;2023-01-31T00:08:33;54832.50;;;-143.77;70.16
13836;BME280;6988;52.614;13.500;2023-01-31T00:13:26;54844.81;;;-143.77;70.08
13836;BME280;6988;52.614;13.500;2023-01-31T00:18:18;54859.19;;;-143.77;70.38
13836;BME280;6988;52.614;13.500;2023-01-31T00:23:11;54865.34;;;-143.77;70.20
13836;BME280;6988;52.614;13.500;2023-01-31T00:28:03;54848.91;;;-143.77;70.50
13836;BME280;6988;52.614;13.500;2023-01-31T00:32:55;54850.97;;;-143.77;70.63
13836;BME280;6988;52.614;13.500;2023-01-31T00:37:48;54861.22;;;-143.77;70.82
13836;BME280;6988;52.614;13.500;2023-01-31T00:42:41;54892.00;;;-143.77;70.82
13836;BME280;6988;52.614;13.500;2023-01-31T00:47:35;54844.81;;;-143.77;71.33
13836;BME280;6988;52.614;13.500;2023-01-31T00:52:27;54869.44;;;-143.77;71.22
13836;BME280;6988;52.614;13.500;2023-01-31T00:57:18;54830.44;;;-143.77;70.92
13836;BME280;6988;52.614;13.500;2023-01-31T01:02:12;54842.75;;;-143.77;70.94
13836;BME280;6988;52.614;13.500;2023-01-31T01:07:03;54865.34;;;-143.77;70.71
13836;BME280;6988;52.614;13.500;2023-01-31T01:11:57;54842.75;;;-143.77;70.62
13836;BME280;6988;52.614;13.500;2023-01-31T01:16:48;54861.22;;;-143.77;70.73
13836;BME280;6988;52.614;13.500;2023-01-31T01:21:42;54832.50;;;-143.77;70.57
13836;BME280;6988;52.614;13.500;2023-01-31T01:26:34;54799.66;;;-143.77;70.36
13836;BME280;6988;52.614;13.500;2023-01-31T01:31:29;54881.75;;;-143.77;70.28
13836;BME280;6988;52.614;13.500;2023-01-31T01:36:21;54861.22;;;-143.77;70.56
13836;BME280;6988;52.614;13.500;2023-01-31T01:41:14;54842.75;;;-143.77;70.57
13836;BME280;6988;52.614;13.500;2023-01-31T01:46:08;54820.19;;;-143.77;70.40
13836;BME280;6988;52.614;13.500;2023-01-31T01:51:04;54826.34;;;-143.77;70.22
13836;BME280;6988;52.614;13.500;2023-01-31T01:56:02;54863.28;;;-143.77;70.35
13836;BME280;6988;52.614;13.500;2023-01-31T02:00:58;54822.25;;;-143.77;69.88
13836;BME280;6988;52.614;13.500;2023-01-31T02:05:54;54853.03;;;-143.77;70.17
13836;BME280;6988;52.614;13.500;2023-01-31T02:10:52;54857.13;;;-143.77;69.69
13836;BME280;6988;52.614;13.500;2023-01-31T02:15:47;54801.72;;;-143.77;70.23
13836;BME280;6988;52.614;13.500;2023-01-31T02:21:20;54803.78;;;-143.77;69.85
13836;BME280;6988;52.614;13.500;2023-01-31T02:26:58;54832.50;;;-143.77;70.13
13836;BME280;6988;52.614;13.500;2023-01-31T02:32:32;54836.59;;;-143.77;70.45
13836;BME280;6988;52.614;13.500;2023-01-31T02:37:41;54865.34;;;-143.77;70.50
13836;BME280;6988;52.614;13.500;2023-01-31T02:42:47;54836.59;;;-143.77;70.42
13836;BME280;6988;52.614;13.500;2023-01-31T02:48:02;54814.03;;;-143.77;70.30
13836;BME280;6988;52.614;13.500;2023-01-31T02:53:08;54848.91;;;-143.77;70.87
13836;BME280;6988;52.614;13.500;2023-01-31T02:58:08;54848.91;;;-143.77;70.76
13836;BME280;6988;52.614;13.500;2023-01-31T03:03:07;54820.19;;;-143.77;70.52
13836;BME280;6988;52.614;13.500;2023-01-31T03:08:05;54857.13;;;-143.77;71.00
13836;BME280;6988;52.614;13.500;2023-01-31T03:13:13;54865.34;;;-143.77;71.13
13836;BME280;6988;52.614;13.500;2023-01-31T03:18:18;54885.84;;;-143.77;71.64
13836;BME280;6988;52.614;13.500;2023-01-31T03:23:17;54883.81;;;-143.77;71.59
13836;BME280;6988;52.614;13.500;2023-01-31T03:28:17;54844.81;;;-143.77;72.27
13836;BME280;6988;52.614;13.500;2023-01-31T03:33:20;54902.28;;;-143.77;72.15
13836;BME280;6988;52.614;13.500;2023-01-31T03:38:20;54846.88;;;-143.77;72.77
13836;BME280;6988;52.614;13.500;2023-01-31T03:43:20;54857.13;;;-143.77;73.01
13836;BME280;6988;52.614;13.500;2023-01-31T03:48:21;54859.19;;;-143.77;73.21
13836;BME280;6988;52.614;13.500;2023-01-31T03:53:23;54877.66;;;-143.77;73.65
13836;BME280;6988;52.614;13.500;2023-01-31T03:58:22;54844.81;;;-143.77;73.98
13836;BME280;6988;52.614;13.500;2023-01-31T04:03:25;54865.34;;;-143.77;74.10
13836;BME280;6988;52.614;13.500;2023-01-31T04:08:19;54926.91;;;-143.77;74.16
13836;BME280;6988;52.614;13.500;2023-01-31T04:13:19;54883.81;;;-143.77;74.38
13836;BME280;6988;52.614;13.500;2023-01-31T04:18:12;54877.66;;;-143.77;74.88
13836;BME280;6988;52.614;13.500;2023-01-31T04:23:05;54885.84;;;-143.77;74.55
13836;BME280;6988;52.614;13.500;2023-01-31T04:27:56;54906.38;;;-143.77;74.78
13836;BME280;6988;52.614;13.500;2023-01-31T04:32:48;54922.78;;;-143.77;74.93
13836;BME280;6988;52.614;13.500;2023-01-31T04:37:40;54904.31;;;-143.77;75.04
13836;BME280;6988;52.614;13.500;2023-01-31T04:42:33;54912.53;;;-143.77;75.31
13836;BME280;6988;52.614;13.500;2023-01-31T04:47:25;54869.44;;;-143.77;75.35
13836;BME280;6988;52.614;13.500;2023-01-31T04:52:16;54898.16;;;-143.77;75.89
13836;BME280;6988;52.614;13.500;2023-01-31T04:57:08;54904.31;;;-143.77;76.31
13836;BME280;6988;52.614;13.500;2023-01-31T05:02:01;54898.16;;;-143.77;76.53
13836;BME280;6988;52.614;13.500;2023-01-31T05:06:53;54898.16;;;-143.77;77.03
13836;BME280;6988;52.614;13.500;2023-01-31T05:11:45;54906.38;;;-143.77;77.03
13836;BME280;6988;52.614;13.500;2023-01-31T05:16:36;54904.31;;;-143.77;77.07
13836;BME280;6988;52.614;13.500;2023-01-31T05:21:29;54869.44;;;-143.77;77.44
13836;BME280;6988;52.614;13.500;2023-01-31T05:26:41;54896.13;;;-143.77;77.31
13836;BME280;6988;52.614;13.500;2023-01-31T05:31:33;54894.06;;;-143.77;77.76
13836;BME280;6988;52.614;13.500;2023-01-31T05:36:24;54861.22;;;-143.77;77.64
13836;BME280;6988;52.614;13.500;2023-01-31T05:41:17;54887.91;;;-143.77;77.59
13836;BME280;6988;52.614;13.500;2023-01-31T05:46:09;54906.38;;;-143.77;77.79
13836;BME280;6988;52.614;13.500;2023-01-31T05:51:01;54883.81;;;-143.77;77.68
13836;BME280;6988;52.614;13.500;2023-01-31T05:55:53;54887.91;;;-143.77;78.49
13836;BME280;6988;52.614;13.500;2023-01-31T06:00:46;54881.75;;;-143.77;78.26
13836;BME280;6988;52.614;13.500;2023-01-31T06:05:37;54881.75;;;-143.77;78.59
13836;BME280;6988;52.614;13.500;2023-01-31T06:10:30;54885.84;;;-143.77;78.85
13836;BME280;6988;52.614;13.500;2023-01-31T06:15:22;54902.28;;;-143.77;78.98
13836;BME280;6988;52.614;13.500;2023-01-31T06:20:15;54883.81;;;-143.77;78.79
13836;BME280;6988;52.614;13.500;2023-01-31T06:25:08;54861.22;;;-143.77;78.94
13836;BME280;6988;52.614;13.500;2023-01-31T06:30:00;54898.16;;;-143.77;78.53
13836;BME280;6988;52.614;13.500;2023-01-31T06:34:52;54889.97;;;-143.77;78.63
13836;BME280;6988;52.614;13.500;2023-01-31T06:39:45;54846.88;;;-143.77;78.23
13836;BME280;6988;52.614;13.500;2023-01-31T06:44:36;54857.13;;;-143.77;77.72
13836;BME280;6988;52.614;13.500;2023-01-31T06:49:29;54861.22;;;-143.77;77.38
13836;BME280;6988;52.614;13.500;2023-01-31T06:54:21;54867.38;;;-143.77;77.18
13836;BME280;6988;52.614;13.500;2023-01-31T06:59:14;54871.50;;;-143.77;77.20
13836;BME280;6988;52.614;13.500;2023-01-31T07:04:05;54844.81;;;-143.77;76.71
13836;BME280;6988;52.614;13.500;2023-01-31T07:08:57;54828.41;;;-143.77;76.80
13836;BME280;6988;52.614;13.500;2023-01-31T07:13:49;54832.50;;;-143.77;76.88
13836;BME280;6988;52.614;13.500;2023-01-31T07:18:42;54857.13;;;-143.77;77.32
13836;BME280;6988;52.614;13.500;2023-01-31T07:23:33;54820.19;;;-143.77;77.57
13836;BME280;6988;52.614;13.500;2023-01-31T07:28:25;54840.72;;;-143.77;77.87
13836;BME280;6988;52.614;13.500;2023-01-31T07:33:17;54848.91;;;-143.77;78.06
13836;BME280;6988;52.614;13.500;2023-01-31T07:38:10;54840.72;;;-143.77;78.35
13836;BME280;6988;52.614;13.500;2023-01-31T07:43:02;54836.59;;;-143.77;78.09
13836;BME280;6988;52.614;13.500;2023-01-31T07:47:56;54842.75;;;-143.77;77.66
13836;BME280;6988;52.614;13.500;2023-01-31T07:52:49;54848.91;;;-143.77;77.84
13836;BME280;6988;52.614;13.500;2023-01-31T07:57:42;54820.19;;;-143.77;77.38
13836;BME280;6988;52.614;13.500;2023-01-31T08:02:33;54826.34;;;-143.77;78.02
13836;BME280;6988;52.614;13.500;2023-01-31T08:07:42;54820.19;;;-143.77;78.98
13836;BME280;6988;52.614;13.500;2023-01-31T08:12:55;54820.19;;;-143.77;78.93
13836;BME280;6988;52.614;13.500;2023-01-31T08:17:47;54816.09;;;-143.77;78.85
13836;BME280;6988;52.614;13.500;2023-01-31T08:22:39;54826.34;;;-143.77;78.89
13836;BME280;6988;52.614;13.500;2023-01-31T08:27:30;54807.88;;;-143.77;79.14
13836;BME280;6988;52.614;13.500;2023-01-31T08:32:24;54836.59;;;-143.77;80.34
13836;BME280;6988;52.614;13.500;2023-01-31T08:37:15;54853.03;;;-143.77;80.38
13836;BME280;6988;52.614;13.500;2023-01-31T08:42:07;54848.91;;;-143.77;81.45
13836;BME280;6988;52.614;13.500;2023-01-31T08:46:59;54848.91;;;-143.77;81.53
13836;BME280;6988;52.614;13.500;2023-01-31T08:51:53;54832.50;;;-143.77;81.76
13836;BME280;6988;52.614;13.500;2023-01-31T08:56:45;54853.03;;;-143.77;81.07
13836;BME280;6988;52.614;13.500;2023-01-31T09:01:37;54853.03;;;-143.77;80.99
13836;BME280;6988;52.614;13.500;2023-01-31T09:06:31;54807.88;;;-143.77;80.93
13836;BME280;6988;52.614;13.500;2023-01-31T09:11:27;54850.97;;;-143.77;80.32
13836;BME280;6988;52.614;13.500;2023-01-31T09:16:19;54811.97;;;-143.77;80.05
13836;BME280;6988;52.614;13.500;2023-01-31T09:21:14;54834.56;;;-143.77;79.62
13836;BME280;6988;52.614;13.500;2023-01-31T09:26:06;54824.28;;;-143.77;79.38
13836;BME280;6988;52.614;13.500;2023-01-31T09:31:03;54811.97;;;-143.77;79.30
13836;BME280;6988;52.614;13.500;2023-01-31T09:35:56;54832.50;;;-143.77;79.39
13836;BME280;6988;52.614;13.500;2023-01-31T09:40:48;54805.81;;;-143.77;79.36
13836;BME280;6988;52.614;13.500;2023-01-31T09:45:44;54828.41;;;-143.77;78.57
13836;BME280;6988;52.614;13.500;2023-01-31T09:50:42;54828.41;;;-143.77;78.73
13836;BME280;6988;52.614;13.500;2023-01-31T09:55:45;54818.13;;;-143.77;78.21
13836;BME280;6988;52.614;13.500;2023-01-31T10:00:46;54795.56;;;-143.77;77.81
13836;BME280;6988;52.614;13.500;2023-01-31T10:05:49;54824.28;;;-143.77;77.76
13836;BME280;6988;52.614;13.500;2023-01-31T10:10:46;54801.72;;;-143.77;76.72
13836;BME280;6988;52.614;13.500;2023-01-31T10:15:45;54816.09;;;-143.77;76.69
13836;BME280;6988;52.614;13.500;2023-01-31T10:20:46;54783.25;;;-143.77;76.47
13836;BME280;6988;52.614;13.500;2023-01-31T10:25:49;54801.72;;;-143.77;76.11
13836;BME280;6988;52.614;13.500;2023-01-31T10:30:50;54795.56;;;-143.77;76.08
13836;BME280;6988;52.614;13.500;2023-01-31T10:35:45;54820.19;;;-143.77;75.77
13836;BME280;6988;52.614;13.500;2023-01-31T10:40:41;54811.97;;;-143.77;75.66
13836;BME280;6988;52.614;13.500;2023-01-31T10:45:35;54803.78;;;-143.77;75.19
13836;BME280;6988;52.614;13.500;2023-01-31T10:50:33;54766.84;;;-143.77;76.00
13836;BME280;6988;52.614;13.500;2023-01-31T10:55:51;54744.25;;;-143.77;76.02
13836;BME280;6988;52.614;13.500;2023-01-31T11:00:45;54779.16;;;-143.77;76.14
13836;BME280;6988;52.614;13.500;2023-01-31T11:05:46;54773.00;;;-143.77;76.10
13836;BME280;6988;52.614;13.500;2023-01-31T11:10:50;54797.63;;;-143.77;75.60
13836;BME280;6988;52.614;13.500;2023-01-31T11:15:43;54770.94;;;-143.77;75.71
13836;BME280;6988;52.614;13.500;2023-01-31T11:20:45;54795.56;;;-143.77;75.37
13836;BME280;6988;52.614;13.500;2023-01-31T11:25:38;54807.88;;;-143.77;76.00
13836;BME280;6988;52.614;13.500;2023-01-31T11:30:34;54781.19;;;-143.77;75.89
13836;BME280;6988;52.614;13.500;2023-01-31T11:35:29;54789.41;;;-143.77;75.49
13836;BME280;6988;52.614;13.500;2023-01-31T11:40:28;54777.09;;;-143.77;75.08
13836;BME280;6988;52.614;13.500;2023-01-31T11:45:23;54764.78;;;-143.77;74.89
13836;BME280;6988;52.614;13.500;2023-01-31T11:50:25;54770.94;;;-143.77;74.77
13836;BME280;6988;52.614;13.500;2023-01-31T11:55:22;54799.66;;;-143.77;75.22
13836;BME280;6988;52.614;13.500;2023-01-31T12:00:22;54803.78;;;-143.77;75.06
13836;BME280;6988;52.614;13.500;2023-01-31T12:05:17;54814.03;;;-143.77;75.90
13836;BME280;6988;52.614;13.500;2023-01-31T12:10:33;54801.72;;;-143.77;76.76
13836;BME280;6988;52.614;13.500;2023-01-31T12:15:27;54758.63;;;-143.77;77.01
13836;BME280;6988;52.614;13.500;2023-01-31T12:20:33;54770.94;;;-143.77;77.43
13836;BME280;6988;52.614;13.500;2023-01-31T12:25:49;54809.94;;;-143.77;78.69
13836;BME280;6988;52.614;13.500;2023-01-31T12:31:04;54779.16;;;-143.77;79.40
13836;BME280;6988;52.614;13.500;2023-01-31T12:36:21;54793.50;;;-143.77;79.82
13836;BME280;6988;52.614;13.500;2023-01-31T12:41:28;54805.81;;;-143.77;81.18
13836;BME280;6988;52.614;13.500;2023-01-31T12:46:29;54791.47;;;-143.77;81.82
13836;BME280;6988;52.614;13.500;2023-01-31T12:51:41;54803.78;;;-143.77;82.15
13836;BME280;6988;52.614;13.500;2023-01-31T12:56:52;54787.34;;;-143.77;83.42
13836;BME280;6988;52.614;13.500;2023-01-31T13:01:55;54816.09;;;-143.77;84.41
13836;BME280;6988;52.614;13.500;2023-01-31T13:06:53;54838.66;;;-143.77;84.83
13836;BME280;6988;52.614;13.500;2023-01-31T13:11:55;54801.72;;;-143.77;85.75
13836;BME280;6988;52.614;13.500;2023-01-31T13:16:53;54824.28;;;-143.77;86.19
13836;BME280;6988;52.614;13.500;2023-01-31T13:21:51;54783.25;;;-143.77;87.10
13836;BME280;6988;52.614;13.500;2023-01-31T13:26:49;54826.34;;;-143.77;87.16
13836;BME280;6988;52.614;13.500;2023-01-31T13:31:46;54834.56;;;-143.77;87.34
13836;BME280;6988;52.614;13.500;2023-01-31T13:36:43;54814.03;;;-143.77;87.23
13836;BME280;6988;52.614;13.500;2023-01-31T13:41:36;54838.66;;;-143.77;87.39
13836;BME280;6988;52.614;13.500;2023-01-31T13:46:37;54777.09;;;-143.77;87.49
13836;BME280;6988;52.614;13.500;2023-01-31T13:51:38;54836.59;;;-143.77;87.02
13836;BME280;6988;52.614;13.500;2023-01-31T13:56:35;54828.41;;;-143.77;86.84
13836;BME280;6988;52.614;13.500;2023-01-31T14:01:34;54836.59;;;-143.77;87.60
13836;BME280;6988;52.614;13.500;2023-01-31T14:06:54;54811.97;;;-143.77;88.56
13836;BME280;6988;52.614;13.500;2023-01-31T14:11:46;54805.81;;;-143.77;88.71
13836;BME280;6988;52.614;13.500;2023-01-31T14:16:41;54822.25;;;-143.77;88.61
13836;BME280;6988;52.614;13.500;2023-01-31T14:21:54;54791.47;;;-143.77;88.41
13836;BME280;6988;52.614;13.500;2023-01-31T14:26:52;54762.72;;;-143.77;88.59
13836;BME280;6988;52.614;13.500;2023-01-31T14:31:48;54814.03;;;-143.77;88.50
13836;BME280;6988;52.614;13.500;2023-01-31T14:36:55;54803.78;;;-143.77;89.20
13836;BME280;6988;52.614;13.500;2023-01-31T14:47:48;54807.88;;;-143.77;89.34
13836;BME280;6988;52.614;13.500;2023-01-31T14:53:05;54816.09;;;-143.77;89.78
13836;BME280;6988;52.614;13.500;2023-01-31T14:58:03;54795.56;;;-143.77;89.93
13836;BME280;6988;52.614;13.500;2023-01-31T15:03:04;54787.34;;;-143.77;89.91
13836;BME280;6988;52.614;13.500;2023-01-31T15:08:08;54828.41;;;-143.77;89.88
13836;BME280;6988;52.614;13.500;2023-01-31T15:13:46;54857.13;;;-143.77;89.82
13836;BME280;6988;52.614;13.500;2023-01-31T15:18:42;54816.09;;;-143.77;89.80
13836;BME280;6988;52.614;13.500;2023-01-31T15:23:41;54816.09;;;-143.77;89.95
13836;BME280;6988;52.614;13.500;2023-01-31T15:28:37;54803.78;;;-143.77;89.51
13836;BME280;6988;52.614;13.500;2023-01-31T15:33:37;54799.66;;;-143.77;89.90
13836;BME280;6988;52.614;13.500;2023-01-31T15:38:38;54814.03;;;-143.77;90.49
13836;BME280;6988;52.614;13.500;2023-01-31T15:43:31;54770.94;;;-143.77;90.10
13836;BME280;6988;52.614;13.500;2023-01-31T15:48:28;54803.78;;;-143.77;90.47
13836;BME280;6988;52.614;13.500;2023-01-31T15:53:23;54779.16;;;-143.77;90.50
13836;BME280;6988;52.614;13.500;2023-01-31T15:58:19;54826.34;;;-143.77;90.61
13836;BME280;6988;52.614;13.500;2023-01-31T16:03:20;54805.81;;;-143.77;90.43
13836;BME280;6988;52.614;13.500;2023-01-31T16:08:20;54793.50;;;-143.77;90.63
13836;BME280;6988;52.614;13.500;2023-01-31T16:13:19;54789.41;;;-143.77;90.54
13836;BME280;6988;52.614;13.500;2023-01-31T16:18:13;54879.69;;;-143.77;90.50
13836;BME280;6988;52.614;13.500;2023-01-31T16:23:16;54775.03;;;-143.77;90.43
13836;BME280;6988;52.614;13.500;2023-01-31T16:28:12;54811.97;;;-143.77;90.30
13836;BME280;6988;52.614;13.500;2023-01-31T16:33:15;54758.63;;;-143.77;90.50
13836;BME280;6988;52.614;13.500;2023-01-31T16:38:18;54799.66;;;-143.77;90.10
13836;BME280;6988;52.614;13.500;2023-01-31T16:43:25;54775.03;;;-143.77;89.73
13836;BME280;6988;52.614;13.500;2023-01-31T16:48:25;54803.78;;;-143.77;89.51
13836;BME280;6988;52.614;13.500;2023-01-31T16:53:34;54793.50;;;-143.77;89.12
13836;BME280;6988;52.614;13.500;2023-01-31T16:58:43;54799.66;;;-143.77;88.97
13836;BME280;6988;52.614;13.500;2023-01-31T17:03:37;54791.47;;;-143.77;88.93
13836;BME280;6988;52.614;13.500;2023-01-31T17:08:29;54787.34;;;-143.77;88.83
13836;BME280;6988;52.614;13.500;2023-01-31T17:13:23;54803.78;;;-143.77;88.78
13836;BME280;6988;52.614;13.500;2023-01-31T17:18:17;54791.47;;;-143.77;88.91
13836;BME280;6988;52.614;13.500;2023-01-31T17:23:11;54801.72;;;-143.77;88.67
13836;BME280;6988;52.614;13.500;2023-01-31T17:28:04;54779.16;;;-143.77;88.73
13836;BME280;6988;52.614;13.500;2023-01-31T17:32:56;54777.09;;;-143.77;88.67
13836;BME280;6988;52.614;13.500;2023-01-31T17:37:48;54787.34;;;-143.77;88.91
13836;BME280;6988;52.614;13.500;2023-01-31T17:42:42;54764.78;;;-143.77;88.82
13836;BME280;6988;52.614;13.500;2023-01-31T17:47:34;54777.09;;;-143.77;88.54
13836;BME280;6988;52.614;13.500;2023-01-31T17:52:25;54824.28;;;-143.77;88.17
13836;BME280;6988;52.614;13.500;2023-01-31T17:57:17;54801.72;;;-143.77;87.70
13836;BME280;6988;52.614;13.500;2023-01-31T18:02:11;54818.13;;;-143.77;87.54
13836;BME280;6988;52.614;13.500;2023-01-31T18:07:02;54775.03;;;-143.77;87.40
13836;BME280;6988;52.614;13.500;2023-01-31T18:11:54;54770.94;;;-143.77;86.53
13836;BME280;6988;52.614;13.500;2023-01-31T18:16:48;54820.19;;;-143.77;85.96
13836;BME280;6988;52.614;13.500;2023-01-31T18:21:41;54754.53;;;-143.77;85.86
13836;BME280;6988;52.614;13.500;2023-01-31T18:26:33;54822.25;;;-143.77;84.66
13836;BME280;6988;52.614;13.500;2023-01-31T18:31:24;54779.16;;;-143.77;84.61
13836;BME280;6988;52.614;13.500;2023-01-31T18:36:18;54754.53;;;-143.77;83.39
13836;BME280;6988;52.614;13.500;2023-01-31T18:41:14;54738.09;;;-143.77;83.52
13836;BME280;6988;52.614;13.500;2023-01-31T18:46:08;54729.91;;;-143.77;83.26
13836;BME280;6988;52.614;13.500;2023-01-31T18:51:02;54746.31;;;-143.77;83.16
13836;BME280;6988;52.614;13.500;2023-01-31T18:56:00;54734.00;;;-143.77;82.93
13836;BME280;6988;52.614;13.500;2023-01-31T19:00:53;54773.00;;;-143.77;83.13
13836;BME280;6988;52.614;13.500;2023-01-31T19:05:45;54744.25;;;-143.77;83.02
13836;BME280;6988;52.614;13.500;2023-01-31T19:10:37;54779.16;;;-143.77;83.63
13836;BME280;6988;52.614;13.500;2023-01-31T19:15:28;54738.09;;;-143.77;83.39
13836;BME280;6988;52.614;13.500;2023-01-31T19:20:22;54791.47;;;-143.77;81.45
13836;BME280;6988;52.614;13.500;2023-01-31T19:25:14;54766.84;;;-143.77;79.34
13836;BME280;6988;52.614;13.500;2023-01-31T19:30:07;54793.50;;;-143.77;80.19
13836;BME280;6988;52.614;13.500;2023-01-31T19:34:59;54818.13;;;-143.77;81.31
13836;BME280;6988;52.614;13.500;2023-01-31T19:39:53;54811.97;;;-143.77;81.16
13836;BME280;6988;52.614;13.500;2023-01-31T19:44:45;54807.88;;;-143.77;81.35
13836;BME280;6988;52.614;13.500;2023-01-31T19:49:37;54787.34;;;-143.77;81.62
13836;BME280;6988;52.614;13.500;2023-01-31T19:54:28;54797.63;;;-143.77;82.07
13836;BME280;6988;52.614;13.500;2023-01-31T19:59:21;54824.28;;;-143.77;82.62
13836;BME280;6988;52.614;13.500;2023-01-31T20:04:13;54803.78;;;-143.77;82.62
13836;BME280;6988;52.614;13.500;2023-01-31T20:09:05;54820.19;;;-143.77;82.02
13836;BME280;6988;52.614;13.500;2023-01-31T20:13:57;54820.19;;;-143.77;81.87
13836;BME280;6988;52.614;13.500;2023-01-31T20:18:51;54811.97;;;-143.77;81.48
13836;BME280;6988;52.614;13.500;2023-01-31T20:23:44;54811.97;;;-143.77;82.00
13836;BME280;6988;52.614;13.500;2023-01-31T20:28:36;54824.28;;;-143.77;81.52
13836;BME280;6988;52.614;13.500;2023-01-31T20:33:28;54801.72;;;-143.77;82.16
13836;BME280;6988;52.614;13.500;2023-01-31T20:38:21;54803.78;;;-143.77;81.89
13836;BME280;6988;52.614;13.500;2023-01-31T20:43:13;54807.88;;;-143.77;81.64
13836;BME280;6988;52.614;13.500;2023-01-31T20:48:05;54838.66;;;-143.77;80.69
13836;BME280;6988;52.614;13.500;2023-01-31T20:52:58;54799.66;;;-143.77;80.21
13836;BME280;6988;52.614;13.500;2023-01-31T20:57:51;54787.34;;;-143.77;80.39
13836;BME280;6988;52.614;13.500;2023-01-31T21:02:42;54836.59;;;-143.77;80.39
13836;BME280;6988;52.614;13.500;2023-01-31T21:07:34;54828.41;;;-143.77;80.97
13836;BME280;6988;52.614;13.500;2023-01-31T21:12:26;54816.09;;;-143.77;81.03
13836;BME280;6988;52.614;13.500;2023-01-31T21:17:19;54832.50;;;-143.77;80.94
13836;BME280;6988;52.614;13.500;2023-01-31T21:22:12;54795.56;;;-143.77;81.46
13836;BME280;6988;52.614;13.500;2023-01-31T21:27:04;54842.75;;;-143.77;81.67
13836;BME280;6988;52.614;13.500;2023-01-31T21:31:56;54793.50;;;-143.77;80.78
13836;BME280;6988;52.614;13.500;2023-01-31T21:36:49;54809.94;;;-143.77;80.65
13836;BME280;6988;52.614;13.500;2023-01-31T21:41:40;54811.97;;;-143.77;80.91
13836;BME280;6988;52.614;13.500;2023-01-31T21:46:50;54811.97;;;-143.77;81.20
13836;BME280;6988;52.614;13.500;2023-01-31T21:51:41;54811.97;;;-143.77;80.92
13836;BME280;6988;52.614;13.500;2023-01-31T21:56:34;54857.13;;;-143.77;81.38
13836;BME280;6988;52.614;13.500;2023-01-31T22:01:29;54863.28;;;-143.77;81.50
13836;BME280;6988;52.614;13.500;2023-01-31T22:06:23;54859.19;;;-143.77;81.66
13836;BME280;6988;52.614;13.500;2023-01-31T22:11:16;54830.44;;;-143.77;81.66
13836;BME280;6988;52.614;13.500;2023-01-31T22:16:11;54826.34;;;-143.77;81.31
13836;BME280;6988;52.614;13.500;2023-01-31T22:21:05;54861.22;;;-143.77;81.85
13836;BME280;6988;52.614;13.500;2023-01-31T22:26:02;54863.28;;;-143.77;82.18
13836;BME280;6988;52.614;13.500;2023-01-31T22:30:56;54857.13;;;-143.77;82.91
13836;BME280;6988;52.614;13.500;2023-01-31T22:35:49;54805.81;;;-143.77;82.71
13836;BME280;6988;52.614;13.500;2023-01-31T22:40:42;54865.34;;;-143.77;83.54
13836;BME280;6988;52.614;13.500;2023-01-31T22:45:34;54865.34;;;-143.77;83.59
13836;BME280;6988;52.614;13.500;2023-01-31T23:05:09;54865.34;;;-143.77;85.93
13836;BME280;6988;52.614;13.500;2023-01-31T23:10:01;54879.69;;;-143.77;85.30
13836;BME280;6988;52.614;13.500;2023-01-31T23:14:53;54834.56;;;-143.77;84.67
13836;BME280;6988;52.614;13.500;2023-01-31T23:19:44;54846.88;;;-143.77;83.51
13836;BME280;6988;52.614;13.500;2023-01-31T23:24:38;54844.81;;;-143.77;83.34
13836;BME280;6988;52.614;13.500;2023-01-31T23:29:29;54861.22;;;-143.77;82.75
13836;BME280;6988;52.614;13.500;2023-01-31T23:34:22;54830.44;;;-143.77;83.06
13836;BME280;6988;52.614;13.500;2023-01-31T23:39:13;54883.81;;;-143.77;83.00
13836;BME280;6988;52.614;13.500;2023-01-31T23:44:07;54816.09;;;-143.77;83.41
13836;BME280;6988;52.614;13.500;2023-01-31T23:48:59;54840.72;;;-143.77;83.23
13836;BME280;6988;52.614;13.500;2023-01-31T23:53:51;54838.66;;;-143.77;82.35
13836;BME280;6988;52.614;13.500;2023-01-31T23:58:43;54850.97;;;-143.77;82.36
